Aérodrome :
LOGIN :

S'inscrire | Disclaimer

   EN    FR    IT 

 










Légende :    VFR   VFR Marginal   IFR   IFR Intensif   IFR Très Intensif
Visi : 
Plafond : 
>= 8 km
>= 3000ft
5 à 8 km
1000 à 3000 ft
1500m à 5 km
500 à 1000 ft
800 à 1500m
200 à 500 ft
< 800m
< 200 ft
Symboles :   Orages  Brouillard  Fortes neiges  Fortes précipitations  Vent > 20 kt
SIGMETs :   Divers  Orages  Givrage  Turbulence  Onde Orograph.  Cendres Volcan.







- Altitude de l'aérodrome : 38 ft
- Code IATA : ADX


EGQL - RAF Leuchars

DERNIER METAR :
  • 220850Z 25019KT 9999 -SHRA FEW011 SCT015 BKN025 20/19 Q1007 WHT

METARs EXPIRÉS :
  • 220750Z 26018KT 9999 -SHRA FEW010 BKN013 BKN020 20/19 Q1007 GRN
  • 220650Z 26013KT 9999 BKN013 SCT021 19/19 Q1006 GRN

TAF TAF EGQL
Valide du 22 à 09h jusqu'au 22 à 18h UTC


220742Z 2209/2218 25014KT 9999 BKN014
TEMPO 2209/2218 25020G32KT BKN017
PROB30
TEMPO 2209/2218 FEW017 BKN025
Pas de NOTAMs connus pour ce terrain.
2 SIGMETs publiés pour la FIR Scottish (EGPX) :
 
Onde orographique forte
EGPX SIGMET 03 VALID 221000/221400 EGRR
EGPX SCOTTISH FIR SEV MTW FCST WI N5500 W00530 - N5355 W00530 - N5425 W00810 - N5520 W00655 - N5525 W00720 - N5520 W00815 - N5630 W00705 - N5717 E00016 - N5500 E00140 - N5500 W00530 FL040/240 STNR WKN=
Onde orographique forte
EGPX SIGMET 02 VALID 220600/221000 EGRR
EGPX SCOTTISH FIR SEV MTW FCST WI N5500 W00530 - N5355 W00530 - N5425 W00810 - N5606 W00551 - N5711 E00019 - N5500 E00140 - N5500 W00530 FL040/240 STNR NC=



MET'MAP, la Météo Aéronautique d'un coup d'oeil ! - Copyright ORBIFLY Décembre 2007 - Disclaimer

ORBIFLY MET'MAP TEAM :

Programmation & Développement : Alexandra Zaïnal
Conception & Développement : Baudouin d'Aumeries
Co-Programmation & Développement : Marc-Olivier Méhu
Soutien technique & logistique : Manuel Goepfert

Contact : metmap@orbifly.com




SOURCES & CREDITS :

   NOAA